This is the latest recevied weather packets stored in our database for station/object K5NOC-12. If no packets are shown the sender has not sent any weather packets the latest 10 day(s).
| Time | Temp. | Humidity | Pressure | Rain* | Wind** | Luminosity | Snow |
|---|---|---|---|---|---|---|---|
| 1787603575 | 38.33° C | 20% | 1017.2 hPa | 0 mm | - | - | - |
| 1787602675 | 38.89° C | 19% | 1017.5 hPa | 0 mm | - | - | - |
| 1787601775 | 39.44° C | 20% | 1017.5 hPa | 0 mm | - | - | - |
| 1787600875 | 38.89° C | 20% | 1017.6 hPa | 0 mm | - | - | - |
| 1787599975 | 37.78° C | 21% | 1017.7 hPa | 0 mm | - | - | - |
| 1787599075 | 38.33° C | 21% | 1017.9 hPa | 0 mm | - | - | - |
| 1787598174 | 37.78° C | 21% | 1018 hPa | 0 mm | - | - | - |
| 1787597274 | 37.78° C | 21% | 1018.2 hPa | 0 mm | - | - | - |
| 1787596374 | 37.22° C | 22% | 1018.4 hPa | 0 mm | - | - | - |
| 1787595474 | 36.67° C | 22% | 1018.5 hPa | 0 mm | - | - | - |
| 1787594574 | 36.67° C | 21% | 1018.6 hPa | 0 mm | - | - | - |
| 1787593674 | 36.67° C | 23% | 1018.8 hPa | 0 mm | - | - | - |
| 1787592774 | 35.56° C | 24% | 1018.9 hPa | 0 mm | - | - | - |
| 1787591874 | 35° C | 25% | 1019 hPa | 0 mm | - | - | - |
| 1787590974 | 34.44° C | 27% | 1019.2 hPa | 0 mm | - | - | - |
| 1787590074 | 33.33° C | 28% | 1019.2 hPa | 0 mm | - | - | - |
| 1787589173 | 33.33° C | 29% | 1019.4 hPa | 0 mm | - | - | - |
| 1787588273 | 32.22° C | 30% | 1019.3 hPa | 0 mm | - | - | - |
| 1787587373 | 32.22° C | 30% | 1019.3 hPa | 0 mm | - | - | - |
| 1787586473 | 31.67° C | 32% | 1019.4 hPa | 0 mm | - | - | - |
| 1787585573 | 30.56° C | 36% | 1019.3 hPa | 0 mm | - | - | - |
| 1787584673 | 30° C | 39% | 1019.3 hPa | 0 mm | - | - | - |
| 1787583773 | 28.33° C | 41% | 1019.3 hPa | 0 mm | - | - | - |
| 1787582872 | 27.78° C | 47% | 1019.1 hPa | 0 mm | - | - | - |
| 1787581972 | 26.67° C | 48% | 1019.2 hPa | 0 mm | - | - | - |
* Rain latest hour (hover to see other rain measurements)
** Current wind speed in m/s (hover to see current wind gust speed)